createdAt,value
2022-09-01T00:01:41.451Z,1.20
2022-09-01T00:04:09.937Z,0.90
2022-09-01T00:06:40.757Z,1.48
2022-09-01T00:09:13.657Z,0.85
2022-09-01T00:11:42.502Z,1.10
2022-09-01T00:14:30.349Z,1.73
2022-09-01T00:17:03.782Z,1.13
2022-09-01T00:19:31.022Z,0.90
2022-09-01T00:21:57.584Z,1.23
2022-09-01T00:24:26.151Z,0.90
2022-09-01T00:26:54.732Z,0.77
2022-09-01T00:29:21.897Z,1.02
2022-09-01T00:31:48.814Z,1.35
2022-09-01T00:34:15.915Z,1.83
2022-09-01T00:36:42.463Z,1.17
2022-09-01T00:39:09.730Z,0.73
2022-09-01T00:41:39.643Z,0.95
2022-09-01T00:44:09.528Z,1.05
2022-09-01T00:46:47.757Z,0.88
2022-09-01T00:49:31.539Z,0.80
2022-09-01T00:52:10.922Z,0.50
2022-09-01T00:54:41.447Z,0.82
2022-09-01T00:57:09.756Z,1.25
2022-09-01T00:59:42.562Z,1.23
2022-09-01T01:02:10.696Z,1.00
2022-09-01T01:04:37.436Z,0.90
2022-09-01T01:07:04.161Z,0.73
2022-09-01T01:09:34.171Z,0.73
2022-09-01T01:12:03.865Z,1.00
2022-09-01T01:14:31.949Z,0.80
2022-09-01T01:17:00.208Z,0.82
2022-09-01T01:19:48.524Z,0.68
2022-09-01T01:22:43.075Z,0.50
2022-09-01T01:25:12.822Z,0.70
2022-09-01T01:27:43.686Z,0.90
2022-09-01T01:30:12.104Z,0.50
2022-09-01T01:32:43.233Z,0.70
2022-09-01T01:35:14.693Z,0.60
2022-09-01T01:37:49.039Z,1.00
2022-09-01T01:40:19.781Z,0.60
2022-09-01T01:42:49.498Z,0.73
2022-09-01T01:45:19.484Z,0.98
2022-09-01T01:47:53.335Z,0.98
2022-09-01T01:50:26.159Z,0.85
2022-09-01T01:55:27.468Z,0.98
2022-09-01T01:57:54.369Z,0.70
2022-09-01T02:00:27.030Z,0.70
2022-09-01T02:02:58.162Z,0.85
2022-09-01T02:05:29.512Z,0.70
2022-09-01T02:07:59.522Z,0.82
2022-09-01T02:10:29.550Z,1.02
2022-09-01T02:12:57.701Z,0.50
2022-09-01T02:15:24.168Z,0.60
2022-09-01T02:17:50.876Z,0.77
2022-09-01T02:20:17.457Z,0.80
2022-09-01T02:22:44.659Z,0.88
2022-09-01T02:25:12.655Z,0.75
2022-09-01T02:27:39.857Z,1.02
2022-09-01T02:30:10.953Z,0.77
2022-09-01T02:32:38.084Z,0.90
2022-09-01T02:35:10.037Z,0.45
2022-09-01T02:37:39.392Z,0.82
2022-09-01T02:40:10.264Z,0.90
2022-09-01T02:42:40.865Z,0.70
2022-09-01T02:45:12.049Z,0.82
2022-09-01T02:47:48.451Z,0.43
2022-09-01T02:50:18.821Z,0.57
2022-09-01T02:52:48.588Z,0.98
2022-09-01T02:55:19.445Z,0.80
2022-09-01T02:57:47.032Z,0.45
2022-09-01T03:00:33.030Z,1.92
2022-09-01T03:03:01.577Z,0.70
2022-09-01T03:05:30.454Z,1.42
2022-09-01T03:08:00.566Z,0.70
2022-09-01T03:10:32.756Z,0.73
2022-09-01T03:13:08.284Z,0.75
2022-09-01T03:15:36.482Z,0.50
2022-09-01T03:18:05.439Z,1.13
2022-09-01T03:20:36.213Z,0.75
2022-09-01T03:23:04.949Z,0.68
2022-09-01T03:25:32.357Z,1.05
2022-09-01T03:28:03.240Z,1.17
2022-09-01T03:30:31.641Z,0.63
2022-09-01T03:32:58.788Z,1.17
2022-09-01T03:35:28.373Z,1.80
2022-09-01T03:37:59.584Z,0.65
2022-09-01T03:40:36.009Z,0.88
2022-09-01T03:43:05.409Z,0.47
2022-09-01T03:45:38.409Z,0.73
2022-09-01T03:48:09.230Z,0.60
2022-09-01T03:50:41.029Z,1.13
2022-09-01T03:53:08.333Z,0.90
2022-09-01T03:55:37.503Z,1.67
2022-09-01T03:58:06.306Z,1.30
2022-09-01T04:03:08.394Z,0.60
2022-09-01T04:05:37.976Z,0.50
2022-09-01T04:08:07.950Z,0.88
2022-09-01T04:10:37.743Z,0.63
2022-09-01T04:13:05.248Z,1.00
2022-09-01T04:15:34.766Z,0.60
2022-09-01T04:18:10.838Z,1.20
2022-09-01T04:20:48.453Z,0.50
2022-09-01T04:23:26.134Z,0.50
2022-09-01T04:26:13.173Z,0.80
2022-09-01T04:28:45.587Z,0.68
2022-09-01T04:31:18.686Z,0.43
2022-09-01T04:33:52.813Z,0.70
2022-09-01T04:36:34.018Z,0.77
2022-09-01T04:39:02.056Z,0.60
2022-09-01T04:41:32.113Z,0.65
2022-09-01T04:44:02.415Z,0.70
2022-09-01T04:46:30.758Z,0.77
2022-09-01T04:48:57.744Z,1.00
2022-09-01T04:51:28.228Z,0.90
2022-09-01T04:53:57.697Z,0.50
2022-09-01T04:56:29.514Z,0.52
2022-09-01T04:58:56.160Z,1.37
2022-09-01T05:01:27.610Z,0.65
2022-09-01T05:04:01.442Z,0.70
2022-09-01T05:06:33.518Z,1.42
2022-09-01T05:09:00.214Z,0.75
2022-09-01T05:11:27.846Z,0.60
2022-09-01T05:13:57.796Z,0.70
2022-09-01T05:16:25.823Z,1.10
2022-09-01T05:18:55.754Z,0.50
2022-09-01T05:21:26.618Z,0.82
2022-09-01T05:23:54.363Z,3.05
2022-09-01T05:26:24.011Z,1.27
2022-09-01T05:28:55.544Z,2.20
2022-09-01T05:31:23.601Z,0.75
2022-09-01T05:33:51.811Z,2.15
2022-09-01T05:36:21.312Z,1.13
2022-09-01T05:38:48.112Z,2.50
2022-09-01T05:41:16.984Z,1.92
2022-09-01T05:43:50.446Z,0.85
2022-09-01T05:46:20.654Z,1.10
2022-09-01T05:48:49.585Z,2.70
2022-09-01T05:51:42.596Z,2.63
2022-09-01T05:54:09.469Z,1.65
2022-09-01T05:56:43.568Z,1.88
2022-09-01T05:59:27.037Z,4.93
2022-09-01T06:01:54.773Z,4.15
2022-09-01T06:04:22.942Z,2.78
2022-09-01T06:07:07.806Z,3.28
2022-09-01T06:09:43.186Z,4.00
2022-09-01T06:12:18.791Z,5.18
2022-09-01T06:14:54.274Z,2.58
2022-09-01T06:17:26.793Z,3.22
2022-09-01T06:19:57.818Z,2.88
2022-09-01T06:22:29.728Z,3.42
2022-09-01T06:25:02.961Z,6.25
2022-09-01T06:27:32.821Z,2.78
2022-09-01T06:30:02.683Z,1.58
2022-09-01T06:32:31.894Z,2.53
2022-09-01T06:35:01.629Z,1.30
2022-09-01T06:37:31.779Z,5.25
2022-09-01T06:40:01.358Z,4.82
2022-09-01T06:42:30.703Z,6.72
2022-09-01T06:45:00.159Z,6.65
2022-09-01T06:47:32.490Z,4.95
2022-09-01T06:49:59.568Z,2.53
2022-09-01T06:52:28.735Z,1.98
2022-09-01T06:55:19.084Z,6.07
2022-09-01T06:58:03.952Z,4.13
2022-09-01T07:00:43.491Z,4.13
2022-09-01T07:03:15.563Z,8.02
2022-09-01T07:06:02.608Z,9.80
2022-09-01T07:08:32.655Z,9.50
2022-09-01T07:19:51.463Z,4.13
2022-09-01T07:25:17.390Z,3.05
2022-09-01T07:27:50.877Z,2.75
2022-09-01T07:30:19.627Z,6.00
2022-09-01T07:32:50.654Z,4.32
2022-09-01T07:35:22.512Z,1.95
2022-09-01T07:38:48.407Z,2.45
2022-09-01T07:42:31.320Z,3.30
2022-09-01T07:43:32.675Z,2.58
2022-09-01T07:46:36.662Z,1.83
2022-09-01T07:49:29.615Z,3.28
2022-09-01T07:51:44.005Z,3.83
2022-09-01T07:54:13.798Z,2.20
2022-09-01T07:56:41.192Z,2.80
2022-09-01T07:59:12.743Z,3.72
2022-09-01T08:01:43.079Z,5.35
2022-09-01T08:04:09.731Z,2.08
2022-09-01T08:06:39.401Z,6.28
2022-09-01T08:09:07.557Z,5.18
2022-09-01T08:14:25.000Z,2.08
2022-09-01T08:16:52.499Z,3.30
2022-09-01T08:19:19.907Z,3.53
2022-09-01T08:21:46.375Z,3.72
2022-09-01T08:24:12.857Z,2.97
2022-09-01T08:26:39.401Z,4.78
2022-09-01T08:29:06.005Z,2.67
2022-09-01T08:31:32.740Z,5.72
2022-09-01T08:34:00.256Z,3.65
2022-09-01T08:36:26.805Z,2.00
2022-09-01T08:38:53.473Z,8.18
2022-09-01T08:41:47.516Z,3.80
2022-09-01T08:44:30.423Z,2.95
2022-09-01T08:47:06.668Z,6.03
2022-09-01T08:49:43.926Z,5.32
2022-09-01T08:52:30.549Z,3.30
2022-09-01T08:55:01.856Z,5.85
2022-09-01T08:57:37.614Z,2.10
2022-09-01T09:00:11.826Z,3.13
2022-09-01T09:02:57.087Z,3.08
2022-09-01T09:05:42.948Z,5.38
2022-09-01T09:08:33.410Z,2.85
2022-09-01T09:11:03.773Z,4.22
2022-09-01T09:13:36.665Z,3.13
2022-09-01T09:16:25.771Z,7.43
2022-09-01T09:19:27.142Z,3.42
2022-09-01T09:21:57.028Z,6.10
2022-09-01T09:24:54.306Z,3.40
2022-09-01T09:27:34.742Z,3.00
2022-09-01T09:30:09.355Z,3.50
2022-09-01T09:33:46.548Z,2.50
2022-09-01T09:35:47.402Z,2.58
2022-09-01T09:38:21.689Z,2.65
2022-09-01T09:41:18.380Z,2.33
2022-09-01T09:43:51.035Z,3.00
2022-09-01T09:46:32.589Z,2.35
2022-09-01T09:49:36.374Z,5.15
2022-09-01T09:52:09.734Z,2.42
2022-09-01T09:55:00.893Z,3.47
2022-09-01T09:57:29.310Z,4.53
2022-09-01T10:00:08.589Z,3.28
2022-09-01T10:02:38.536Z,3.58
2022-09-01T10:05:27.856Z,3.10
2022-09-01T10:07:56.025Z,4.88
2022-09-01T10:10:56.386Z,4.30
2022-09-01T10:13:29.137Z,2.92
2022-09-01T10:16:05.385Z,1.92
2022-09-01T10:18:41.720Z,1.35
2022-09-01T10:21:26.516Z,2.42
2022-09-01T10:23:53.698Z,1.25
2022-09-01T10:26:33.852Z,4.50
2022-09-01T10:29:27.228Z,0.85
2022-09-01T10:32:14.814Z,2.65
2022-09-01T10:34:43.660Z,1.55
2022-09-01T10:37:11.809Z,2.60
2022-09-01T10:40:11.591Z,2.47
2022-09-01T10:42:40.554Z,0.80
2022-09-01T10:45:30.916Z,1.90
2022-09-01T10:48:30.555Z,0.77
2022-09-01T10:51:18.272Z,1.67
2022-09-01T10:53:55.997Z,0.95
2022-09-01T10:56:36.897Z,0.98
2022-09-01T10:59:55.582Z,1.38
2022-09-01T11:02:35.269Z,2.00
2022-09-01T11:05:00.386Z,2.78
2022-09-01T11:07:59.851Z,2.25
2022-09-01T11:10:44.680Z,1.60
2022-09-01T11:13:35.919Z,1.85
2022-09-01T11:16:45.962Z,1.58
2022-09-01T11:19:29.454Z,1.23
2022-09-01T11:22:05.133Z,5.32
2022-09-01T11:24:44.762Z,2.05
2022-09-01T11:27:48.359Z,0.75
2022-09-01T11:30:20.892Z,0.85
2022-09-01T11:35:25.733Z,0.60
2022-09-01T11:37:56.623Z,1.85
2022-09-01T11:40:34.723Z,2.58
2022-09-01T11:43:12.415Z,1.65
2022-09-01T11:46:04.964Z,1.25
2022-09-01T11:48:31.578Z,1.83
2022-09-01T11:51:00.946Z,2.08
2022-09-01T11:53:31.252Z,2.85
2022-09-01T11:56:23.206Z,0.90
2022-09-01T11:58:49.673Z,1.88
2022-09-01T12:01:23.368Z,3.13
2022-09-01T12:03:52.909Z,1.35
2022-09-01T12:06:24.950Z,1.75
2022-09-01T12:09:00.118Z,2.08
2022-09-01T12:11:33.304Z,1.23
2022-09-01T12:14:08.938Z,1.15
2022-09-01T12:16:42.097Z,1.48
2022-09-01T12:19:09.063Z,1.58
2022-09-01T12:21:38.347Z,1.55
2022-09-01T12:24:18.221Z,1.20
2022-09-01T12:26:46.383Z,2.17
2022-09-01T12:29:14.573Z,1.17
2022-09-01T12:31:43.597Z,1.05
2022-09-01T12:34:48.294Z,1.23
2022-09-01T12:37:26.314Z,2.40
2022-09-01T12:39:55.013Z,2.83
2022-09-01T12:42:21.457Z,1.27
2022-09-01T12:45:02.517Z,1.98
2022-09-01T12:47:48.119Z,1.23
2022-09-01T12:50:16.488Z,1.40
2022-09-01T12:52:52.413Z,0.70
2022-09-01T12:58:12.804Z,1.05
2022-09-01T13:01:16.159Z,1.00
2022-09-01T13:04:03.295Z,2.85
2022-09-01T13:06:29.782Z,0.70
2022-09-01T13:08:56.747Z,3.30
2022-09-01T13:11:23.522Z,1.50
2022-09-01T13:13:50.427Z,3.25
2022-09-01T13:16:17.125Z,6.57
2022-09-01T13:21:31.399Z,4.50
2022-09-01T13:23:58.722Z,2.58
2022-09-01T13:26:26.334Z,2.00
2022-09-01T13:28:53.962Z,1.55
2022-09-01T13:31:36.037Z,2.65
2022-09-01T13:34:23.069Z,1.40
2022-09-01T13:36:52.478Z,3.38
2022-09-01T13:39:20.472Z,2.45
2022-09-01T13:41:47.621Z,2.50
2022-09-01T13:44:14.376Z,1.50
2022-09-01T13:50:05.088Z,3.20
2022-09-01T13:52:15.048Z,2.80
2022-09-01T13:54:44.260Z,4.40
2022-09-01T13:57:11.913Z,2.60
2022-09-01T13:59:39.055Z,2.42
2022-09-01T14:02:05.892Z,3.00
2022-09-01T14:04:32.776Z,3.17
2022-09-01T14:06:59.811Z,3.45
2022-09-01T14:09:26.668Z,1.83
2022-09-01T14:11:54.530Z,2.67
2022-09-01T14:14:21.891Z,2.22
2022-09-01T14:16:49.238Z,1.13
2022-09-01T14:19:16.026Z,3.75
2022-09-01T14:21:42.816Z,2.50
2022-09-01T14:24:09.440Z,2.03
2022-09-01T14:26:35.915Z,3.20
2022-09-01T14:29:03.029Z,3.47
2022-09-01T14:31:30.249Z,1.98
2022-09-01T14:33:56.893Z,1.40
2022-09-01T14:36:25.853Z,3.45
2022-09-01T14:38:53.336Z,2.75
2022-09-01T14:41:24.047Z,2.28
2022-09-01T14:43:57.537Z,4.72
2022-09-01T14:46:25.585Z,3.93
2022-09-01T14:48:52.113Z,5.18
2022-09-01T14:52:10.216Z,5.00
2022-09-01T14:54:15.094Z,4.18
2022-09-01T14:56:42.012Z,4.50
2022-09-01T14:59:09.470Z,2.78
2022-09-01T15:01:36.104Z,3.78
2022-09-01T15:04:03.100Z,3.67
2022-09-01T15:06:29.600Z,7.30
2022-09-01T15:08:56.100Z,6.95
2022-09-01T15:11:22.669Z,10.15
2022-09-01T15:13:52.139Z,18.08
2022-09-01T15:16:22.867Z,22.55
2022-09-01T15:18:49.535Z,25.13
2022-09-01T15:21:28.456Z,40.50
2022-09-01T15:23:55.184Z,48.42
2022-09-01T15:26:22.021Z,52.90
2022-09-01T15:28:49.332Z,52.83
2022-09-01T15:31:18.962Z,53.97
2022-09-01T15:33:57.022Z,54.75
2022-09-01T15:36:25.841Z,52.50
2022-09-01T15:38:52.911Z,53.63
2022-09-01T15:41:22.514Z,52.70
2022-09-01T15:43:49.157Z,52.10
2022-09-01T15:46:16.240Z,52.35
2022-09-01T15:48:46.098Z,52.75
2022-09-01T15:51:21.707Z,49.78
2022-09-01T15:53:52.331Z,52.88
2022-09-01T15:56:18.940Z,50.22
2022-09-01T15:59:00.735Z,51.35
2022-09-01T16:01:30.946Z,50.15
2022-09-01T16:03:57.665Z,51.00
2022-09-01T16:06:24.543Z,50.75
2022-09-01T16:08:52.181Z,47.58
2022-09-01T16:11:18.825Z,49.28
2022-09-01T16:13:45.334Z,49.90
2022-09-01T16:16:48.736Z,47.90
2022-09-01T16:19:28.638Z,47.42
2022-09-01T16:22:08.977Z,47.30
2022-09-01T16:24:42.436Z,46.85
2022-09-01T16:27:14.369Z,47.38
2022-09-01T16:29:49.835Z,47.25
2022-09-01T16:32:17.802Z,47.67
2022-09-01T16:34:47.032Z,46.70
2022-09-01T16:37:36.052Z,46.83
2022-09-01T16:40:21.660Z,46.83
2022-09-01T16:43:07.740Z,47.20
2022-09-01T16:45:43.322Z,45.08
2022-09-01T16:48:16.051Z,45.13
2022-09-01T16:51:00.462Z,44.70
2022-09-01T16:54:28.873Z,45.50
2022-09-01T16:57:38.010Z,44.75
2022-09-01T17:00:08.977Z,42.92
2022-09-01T17:02:59.696Z,42.78
2022-09-01T17:05:40.003Z,44.80
2022-09-01T17:08:23.307Z,41.83
2022-09-01T17:11:01.932Z,40.72
2022-09-01T17:13:38.306Z,41.72
2022-09-01T17:16:22.214Z,41.85
2022-09-01T17:19:04.823Z,40.85
2022-09-01T17:21:32.165Z,42.25
2022-09-01T17:24:38.684Z,40.17
2022-09-01T17:27:14.360Z,40.28
2022-09-01T17:29:44.834Z,40.00
2022-09-01T17:32:21.297Z,41.25
2022-09-01T17:35:18.631Z,39.88
2022-09-01T17:38:00.525Z,41.33
2022-09-01T17:40:39.886Z,41.80
2022-09-01T17:43:17.298Z,39.05
2022-09-01T17:46:04.367Z,39.97
2022-09-01T17:49:11.499Z,39.17
2022-09-01T17:51:52.408Z,36.95
2022-09-01T17:55:00.270Z,38.13
2022-09-01T17:57:26.702Z,38.03
2022-09-01T18:00:23.547Z,37.80
2022-09-01T18:03:12.982Z,39.08
2022-09-01T18:05:43.621Z,37.17
2022-09-01T18:08:31.712Z,36.88
2022-09-01T18:11:16.006Z,37.97
2022-09-01T18:14:08.760Z,35.78
2022-09-01T18:16:46.048Z,36.95
2022-09-01T18:19:18.709Z,37.08
2022-09-01T18:21:53.182Z,35.05
2022-09-01T18:24:28.758Z,34.88
2022-09-01T18:26:55.235Z,34.53
2022-09-01T18:29:25.044Z,34.92
2022-09-01T18:32:03.546Z,35.72
2022-09-01T18:34:42.418Z,36.00
2022-09-01T18:37:14.506Z,34.38
2022-09-01T18:40:11.496Z,34.90
2022-09-01T18:42:58.313Z,34.42
2022-09-01T18:45:37.409Z,32.92
2022-09-01T18:48:28.357Z,33.40
2022-09-01T18:51:06.762Z,33.20
2022-09-01T18:53:56.699Z,34.03
2022-09-01T18:56:38.029Z,32.15
2022-09-01T18:59:10.350Z,32.45
2022-09-01T19:01:47.018Z,32.05
2022-09-01T19:04:26.080Z,31.58
2022-09-01T19:07:25.090Z,31.48
2022-09-01T19:09:57.341Z,31.90
2022-09-01T19:13:15.056Z,31.85
2022-09-01T19:15:50.464Z,31.08
2022-09-01T19:18:38.394Z,31.70
2022-09-01T19:21:16.312Z,30.80
2022-09-01T19:24:04.141Z,29.33
2022-09-01T19:26:59.404Z,30.25
2022-09-01T19:29:31.515Z,30.45
2022-09-01T19:32:02.437Z,28.98
2022-09-01T19:34:37.896Z,29.77
2022-09-01T19:37:05.456Z,29.17
2022-09-01T19:39:44.516Z,28.00
2022-09-01T19:42:23.668Z,30.02
2022-09-01T19:44:55.950Z,28.50
2022-09-01T19:47:28.429Z,28.25
2022-09-01T19:50:03.081Z,26.77
2022-09-01T19:52:40.314Z,27.23
2022-09-01T19:55:12.795Z,28.00
2022-09-01T19:57:47.120Z,27.85
2022-09-01T20:00:19.587Z,27.38
2022-09-01T20:02:57.134Z,26.60
2022-09-01T20:05:31.738Z,27.45
2022-09-01T20:08:29.278Z,26.58
2022-09-01T20:10:57.607Z,28.50
2022-09-01T20:13:47.870Z,25.10
2022-09-01T20:16:20.223Z,25.77
2022-09-01T20:19:07.312Z,26.10
2022-09-01T20:21:39.084Z,26.65
2022-09-01T20:24:23.567Z,25.87
2022-09-01T20:27:04.541Z,25.38
2022-09-01T20:29:46.999Z,25.58
2022-09-01T20:32:22.929Z,25.10
2022-09-01T20:34:54.737Z,25.38
2022-09-01T20:37:34.702Z,24.73
2022-09-01T20:40:11.210Z,23.65
2022-09-01T20:43:22.554Z,24.83
2022-09-01T20:45:49.389Z,22.90
2022-09-01T20:48:24.849Z,25.05
2022-09-01T20:51:07.871Z,23.77
2022-09-01T20:54:11.985Z,23.90
2022-09-01T20:57:08.674Z,23.45
2022-09-01T20:59:49.445Z,23.00
2022-09-01T21:02:37.282Z,22.25
2022-09-01T21:05:06.649Z,23.42
2022-09-01T21:07:59.011Z,24.02
2022-09-01T21:10:39.709Z,22.23
2022-09-01T21:13:17.742Z,22.98
2022-09-01T21:15:53.699Z,22.67
2022-09-01T21:18:35.481Z,22.42
2022-09-01T21:21:23.809Z,22.60
2022-09-01T21:23:50.260Z,21.40
2022-09-01T21:26:16.870Z,21.85
2022-09-01T21:28:48.122Z,21.92
2022-09-01T21:31:14.930Z,22.00
2022-09-01T21:33:41.500Z,20.00
2022-09-01T21:36:08.513Z,21.33
2022-09-01T21:38:35.642Z,21.15
2022-09-01T21:41:02.471Z,21.52
2022-09-01T21:43:33.305Z,20.83
2022-09-01T21:46:00.907Z,20.63
2022-09-01T21:48:27.845Z,19.35
2022-09-01T21:50:54.300Z,20.77
2022-09-01T21:53:20.928Z,19.20
2022-09-01T21:55:47.611Z,19.67
2022-09-01T21:58:14.372Z,20.13
2022-09-01T22:00:43.314Z,19.88
2022-09-01T22:03:11.549Z,18.63
2022-09-01T22:05:41.801Z,19.77
2022-09-01T22:08:14.057Z,18.77
2022-09-01T22:10:44.252Z,19.13
2022-09-01T22:13:11.426Z,18.65
2022-09-01T22:15:47.405Z,18.83
2022-09-01T22:18:15.210Z,18.52
2022-09-01T22:20:42.452Z,18.35
2022-09-01T22:23:09.705Z,18.25
2022-09-01T22:25:43.864Z,17.65
2022-09-01T22:28:11.038Z,18.15
2022-09-01T22:30:43.952Z,18.17
2022-09-01T22:33:11.112Z,18.60
2022-09-01T22:35:41.407Z,17.25
2022-09-01T22:38:08.183Z,18.15
2022-09-01T22:40:35.797Z,16.85
2022-09-01T22:43:03.056Z,17.50
2022-09-01T22:45:29.563Z,17.05
2022-09-01T22:47:56.090Z,17.05
2022-09-01T22:50:22.625Z,17.02
2022-09-01T22:52:49.127Z,16.88
2022-09-01T22:55:16.387Z,16.88
2022-09-01T22:57:43.630Z,16.35
2022-09-01T23:00:10.788Z,15.85
2022-09-01T23:02:38.009Z,16.30
2022-09-01T23:05:06.113Z,15.65
2022-09-01T23:07:34.982Z,15.52
2022-09-01T23:10:01.655Z,15.27
2022-09-01T23:12:28.139Z,15.65
2022-09-01T23:14:54.695Z,15.50
2022-09-01T23:17:21.201Z,14.50
2022-09-01T23:19:47.672Z,15.05
2022-09-01T23:22:14.490Z,15.68
2022-09-01T23:24:40.969Z,15.30
2022-09-01T23:27:07.483Z,15.25
2022-09-01T23:29:36.724Z,15.50
2022-09-01T23:32:03.683Z,14.90
2022-09-01T23:34:30.281Z,15.40
2022-09-01T23:36:56.801Z,14.50
2022-09-01T23:39:23.484Z,14.88
2022-09-01T23:41:51.811Z,14.68
2022-09-01T23:44:18.352Z,14.57
2022-09-01T23:46:46.274Z,13.95
2022-09-01T23:49:14.734Z,14.10
2022-09-01T23:51:41.578Z,13.38
2022-09-01T23:54:08.369Z,13.70
2022-09-01T23:56:35.151Z,13.65
2022-09-01T23:59:01.818Z,13.55
